sensor_id;sensor_type;location;lat;lon;timestamp;P1;durP1;ratioP1;P2;durP2;ratioP2
11771;SDS011;12556;55.748;13.194;2023-06-01T00:02:10;9.20;;;3.67;;
11771;SDS011;12556;55.748;13.194;2023-06-01T00:04:37;7.23;;;3.40;;
11771;SDS011;12556;55.748;13.194;2023-06-01T00:07:06;4.77;;;3.07;;
11771;SDS011;12556;55.748;13.194;2023-06-01T00:09:33;9.33;;;3.47;;
11771;SDS011;12556;55.748;13.194;2023-06-01T00:12:00;8.43;;;3.13;;
11771;SDS011;12556;55.748;13.194;2023-06-01T00:14:27;7.87;;;3.60;;
11771;SDS011;12556;55.748;13.194;2023-06-01T00:16:54;7.17;;;2.97;;
11771;SDS011;12556;55.748;13.194;2023-06-01T00:19:22;9.10;;;3.33;;
11771;SDS011;12556;55.748;13.194;2023-06-01T00:21:51;8.83;;;3.47;;
11771;SDS011;12556;55.748;13.194;2023-06-01T00:24:20;10.20;;;3.80;;
11771;SDS011;12556;55.748;13.194;2023-06-01T00:26:46;8.87;;;3.57;;
11771;SDS011;12556;55.748;13.194;2023-06-01T00:29:14;8.20;;;3.30;;
11771;SDS011;12556;55.748;13.194;2023-06-01T00:31:40;13.13;;;4.10;;
11771;SDS011;12556;55.748;13.194;2023-06-01T00:34:08;5.57;;;3.70;;
11771;SDS011;12556;55.748;13.194;2023-06-01T00:36:35;11.27;;;3.97;;
11771;SDS011;12556;55.748;13.194;2023-06-01T00:39:02;9.07;;;3.83;;
11771;SDS011;12556;55.748;13.194;2023-06-01T00:41:31;8.37;;;3.83;;
11771;SDS011;12556;55.748;13.194;2023-06-01T00:43:58;4.80;;;3.20;;
11771;SDS011;12556;55.748;13.194;2023-06-01T00:46:25;12.80;;;3.37;;
11771;SDS011;12556;55.748;13.194;2023-06-01T00:48:52;10.57;;;3.53;;
11771;SDS011;12556;55.748;13.194;2023-06-01T00:51:20;8.47;;;3.40;;
11771;SDS011;12556;55.748;13.194;2023-06-01T00:53:47;13.40;;;3.90;;
11771;SDS011;12556;55.748;13.194;2023-06-01T00:56:14;9.60;;;3.83;;
11771;SDS011;12556;55.748;13.194;2023-06-01T00:58:44;13.67;;;4.00;;
11771;SDS011;12556;55.748;13.194;2023-06-01T01:01:11;12.63;;;4.80;;
11771;SDS011;12556;55.748;13.194;2023-06-01T01:03:43;13.67;;;4.23;;
11771;SDS011;12556;55.748;13.194;2023-06-01T01:06:15;10.93;;;3.97;;
11771;SDS011;12556;55.748;13.194;2023-06-01T01:08:50;10.83;;;3.73;;
11771;SDS011;12556;55.748;13.194;2023-06-01T01:11:26;14.97;;;4.13;;
11771;SDS011;12556;55.748;13.194;2023-06-01T01:13:59;17.23;;;4.33;;
11771;SDS011;12556;55.748;13.194;2023-06-01T01:16:32;12.03;;;4.13;;
11771;SDS011;12556;55.748;13.194;2023-06-01T01:19:15;17.07;;;4.03;;
11771;SDS011;12556;55.748;13.194;2023-06-01T01:22:02;11.13;;;3.80;;
11771;SDS011;12556;55.748;13.194;2023-06-01T01:24:43;16.57;;;4.30;;
11771;SDS011;12556;55.748;13.194;2023-06-01T01:27:36;8.50;;;4.33;;
11771;SDS011;12556;55.748;13.194;2023-06-01T01:30:13;8.63;;;3.83;;
11771;SDS011;12556;55.748;13.194;2023-06-01T01:32:40;16.07;;;4.83;;
11771;SDS011;12556;55.748;13.194;2023-06-01T01:35:08;14.47;;;4.67;;
11771;SDS011;12556;55.748;13.194;2023-06-01T01:37:36;15.63;;;4.50;;
11771;SDS011;12556;55.748;13.194;2023-06-01T01:40:04;15.90;;;4.43;;
11771;SDS011;12556;55.748;13.194;2023-06-01T01:42:31;12.40;;;4.37;;
11771;SDS011;12556;55.748;13.194;2023-06-01T01:44:58;16.00;;;5.03;;
11771;SDS011;12556;55.748;13.194;2023-06-01T01:47:30;16.03;;;4.73;;
11771;SDS011;12556;55.748;13.194;2023-06-01T01:50:05;19.97;;;5.60;;
11771;SDS011;12556;55.748;13.194;2023-06-01T01:52:38;14.37;;;4.80;;
11771;SDS011;12556;55.748;13.194;2023-06-01T01:55:07;18.83;;;5.40;;
11771;SDS011;12556;55.748;13.194;2023-06-01T01:57:35;15.43;;;4.80;;
11771;SDS011;12556;55.748;13.194;2023-06-01T02:00:04;15.60;;;5.77;;
11771;SDS011;12556;55.748;13.194;2023-06-01T02:02:34;14.23;;;4.70;;
11771;SDS011;12556;55.748;13.194;2023-06-01T02:05:01;15.37;;;5.40;;
11771;SDS011;12556;55.748;13.194;2023-06-01T02:07:28;16.97;;;5.70;;
11771;SDS011;12556;55.748;13.194;2023-06-01T02:09:56;26.67;;;5.97;;
11771;SDS011;12556;55.748;13.194;2023-06-01T02:12:22;16.63;;;5.20;;
11771;SDS011;12556;55.748;13.194;2023-06-01T02:14:49;15.27;;;5.47;;
11771;SDS011;12556;55.748;13.194;2023-06-01T02:17:16;13.13;;;4.80;;
11771;SDS011;12556;55.748;13.194;2023-06-01T02:19:44;15.33;;;5.10;;
11771;SDS011;12556;55.748;13.194;2023-06-01T02:22:11;16.47;;;5.47;;
11771;SDS011;12556;55.748;13.194;2023-06-01T02:24:38;14.23;;;5.53;;
11771;SDS011;12556;55.748;13.194;2023-06-01T02:27:06;19.20;;;6.23;;
11771;SDS011;12556;55.748;13.194;2023-06-01T02:29:32;18.50;;;6.43;;
11771;SDS011;12556;55.748;13.194;2023-06-01T02:31:59;18.27;;;6.77;;
11771;SDS011;12556;55.748;13.194;2023-06-01T02:34:26;14.80;;;5.87;;
11771;SDS011;12556;55.748;13.194;2023-06-01T02:36:54;18.60;;;5.80;;
11771;SDS011;12556;55.748;13.194;2023-06-01T02:39:22;15.97;;;6.10;;
11771;SDS011;12556;55.748;13.194;2023-06-01T02:41:49;18.17;;;6.07;;
11771;SDS011;12556;55.748;13.194;2023-06-01T02:44:16;16.87;;;5.80;;
11771;SDS011;12556;55.748;13.194;2023-06-01T02:46:43;15.83;;;5.73;;
11771;SDS011;12556;55.748;13.194;2023-06-01T02:49:10;14.80;;;5.87;;
11771;SDS011;12556;55.748;13.194;2023-06-01T02:51:37;16.97;;;6.30;;
11771;SDS011;12556;55.748;13.194;2023-06-01T02:54:05;17.87;;;6.33;;
11771;SDS011;12556;55.748;13.194;2023-06-01T02:56:32;13.87;;;6.50;;
11771;SDS011;12556;55.748;13.194;2023-06-01T02:58:59;18.17;;;6.87;;
11771;SDS011;12556;55.748;13.194;2023-06-01T03:01:26;15.33;;;6.80;;
11771;SDS011;12556;55.748;13.194;2023-06-01T03:03:53;19.63;;;7.07;;
11771;SDS011;12556;55.748;13.194;2023-06-01T03:06:19;19.40;;;6.57;;
11771;SDS011;12556;55.748;13.194;2023-06-01T03:08:48;18.37;;;6.50;;
11771;SDS011;12556;55.748;13.194;2023-06-01T03:11:17;14.10;;;5.70;;
11771;SDS011;12556;55.748;13.194;2023-06-01T03:13:44;20.17;;;6.83;;
11771;SDS011;12556;55.748;13.194;2023-06-01T03:16:10;18.23;;;6.53;;
11771;SDS011;12556;55.748;13.194;2023-06-01T03:18:37;18.10;;;6.30;;
11771;SDS011;12556;55.748;13.194;2023-06-01T03:21:04;18.33;;;6.40;;
11771;SDS011;12556;55.748;13.194;2023-06-01T03:23:31;22.90;;;6.63;;
11771;SDS011;12556;55.748;13.194;2023-06-01T03:25:58;14.60;;;6.13;;
11771;SDS011;12556;55.748;13.194;2023-06-01T03:28:26;15.93;;;6.00;;
11771;SDS011;12556;55.748;13.194;2023-06-01T03:30:53;15.03;;;6.23;;
11771;SDS011;12556;55.748;13.194;2023-06-01T03:33:21;18.27;;;6.53;;
11771;SDS011;12556;55.748;13.194;2023-06-01T03:35:47;12.67;;;6.00;;
11771;SDS011;12556;55.748;13.194;2023-06-01T03:38:15;13.90;;;5.97;;
11771;SDS011;12556;55.748;13.194;2023-06-01T03:40:42;15.27;;;5.90;;
11771;SDS011;12556;55.748;13.194;2023-06-01T03:43:09;20.37;;;6.63;;
11771;SDS011;12556;55.748;13.194;2023-06-01T03:45:38;16.97;;;6.67;;
11771;SDS011;12556;55.748;13.194;2023-06-01T03:48:05;15.03;;;6.40;;
11771;SDS011;12556;55.748;13.194;2023-06-01T03:50:32;15.27;;;6.60;;
11771;SDS011;12556;55.748;13.194;2023-06-01T03:52:58;13.87;;;6.87;;
11771;SDS011;12556;55.748;13.194;2023-06-01T03:55:25;21.57;;;7.33;;
11771;SDS011;12556;55.748;13.194;2023-06-01T03:57:52;15.67;;;6.00;;
11771;SDS011;12556;55.748;13.194;2023-06-01T04:00:19;18.27;;;6.50;;
11771;SDS011;12556;55.748;13.194;2023-06-01T04:02:50;11.33;;;6.10;;
11771;SDS011;12556;55.748;13.194;2023-06-01T04:05:18;17.10;;;6.87;;
11771;SDS011;12556;55.748;13.194;2023-06-01T04:07:46;15.80;;;7.03;;
11771;SDS011;12556;55.748;13.194;2023-06-01T04:10:14;16.93;;;7.33;;
11771;SDS011;12556;55.748;13.194;2023-06-01T04:12:41;14.50;;;5.93;;
11771;SDS011;12556;55.748;13.194;2023-06-01T04:15:12;18.60;;;6.27;;
11771;SDS011;12556;55.748;13.194;2023-06-01T04:17:40;20.33;;;6.73;;
11771;SDS011;12556;55.748;13.194;2023-06-01T04:20:10;13.77;;;6.33;;
11771;SDS011;12556;55.748;13.194;2023-06-01T04:22:38;14.53;;;6.13;;
11771;SDS011;12556;55.748;13.194;2023-06-01T04:25:07;20.40;;;5.70;;
11771;SDS011;12556;55.748;13.194;2023-06-01T04:27:36;20.07;;;6.33;;
11771;SDS011;12556;55.748;13.194;2023-06-01T04:30:04;17.07;;;6.43;;
11771;SDS011;12556;55.748;13.194;2023-06-01T04:32:33;13.70;;;6.30;;
11771;SDS011;12556;55.748;13.194;2023-06-01T04:35:00;12.57;;;5.80;;
11771;SDS011;12556;55.748;13.194;2023-06-01T04:37:31;18.27;;;6.43;;
11771;SDS011;12556;55.748;13.194;2023-06-01T04:39:59;16.07;;;5.57;;
11771;SDS011;12556;55.748;13.194;2023-06-01T04:42:26;17.70;;;6.20;;
11771;SDS011;12556;55.748;13.194;2023-06-01T04:44:55;16.20;;;6.13;;
11771;SDS011;12556;55.748;13.194;2023-06-01T04:47:23;13.87;;;6.33;;
11771;SDS011;12556;55.748;13.194;2023-06-01T04:49:50;15.20;;;5.70;;
11771;SDS011;12556;55.748;13.194;2023-06-01T04:52:18;18.63;;;6.13;;
11771;SDS011;12556;55.748;13.194;2023-06-01T04:54:46;17.37;;;6.27;;
11771;SDS011;12556;55.748;13.194;2023-06-01T04:57:13;14.10;;;6.07;;
11771;SDS011;12556;55.748;13.194;2023-06-01T04:59:41;13.43;;;5.50;;
11771;SDS011;12556;55.748;13.194;2023-06-01T05:02:08;18.50;;;5.80;;
11771;SDS011;12556;55.748;13.194;2023-06-01T05:04:35;19.03;;;6.10;;
11771;SDS011;12556;55.748;13.194;2023-06-01T05:07:02;13.93;;;6.73;;
11771;SDS011;12556;55.748;13.194;2023-06-01T05:09:30;15.97;;;5.60;;
11771;SDS011;12556;55.748;13.194;2023-06-01T05:11:58;11.80;;;6.30;;
11771;SDS011;12556;55.748;13.194;2023-06-01T05:14:25;17.63;;;5.40;;
11771;SDS011;12556;55.748;13.194;2023-06-01T05:16:52;11.23;;;5.33;;
11771;SDS011;12556;55.748;13.194;2023-06-01T05:19:19;16.17;;;5.77;;
11771;SDS011;12556;55.748;13.194;2023-06-01T05:21:46;15.50;;;5.10;;
11771;SDS011;12556;55.748;13.194;2023-06-01T05:24:13;11.43;;;5.03;;
11771;SDS011;12556;55.748;13.194;2023-06-01T05:26:40;16.13;;;5.87;;
11771;SDS011;12556;55.748;13.194;2023-06-01T05:29:08;14.47;;;5.03;;
11771;SDS011;12556;55.748;13.194;2023-06-01T05:31:35;11.90;;;5.20;;
11771;SDS011;12556;55.748;13.194;2023-06-01T05:34:02;14.40;;;5.03;;
11771;SDS011;12556;55.748;13.194;2023-06-01T05:36:29;11.90;;;5.33;;
11771;SDS011;12556;55.748;13.194;2023-06-01T05:38:57;18.57;;;5.57;;
11771;SDS011;12556;55.748;13.194;2023-06-01T05:41:24;17.77;;;5.80;;
11771;SDS011;12556;55.748;13.194;2023-06-01T05:43:51;15.70;;;5.67;;
11771;SDS011;12556;55.748;13.194;2023-06-01T05:46:19;11.43;;;5.10;;
11771;SDS011;12556;55.748;13.194;2023-06-01T05:48:46;14.00;;;5.50;;
11771;SDS011;12556;55.748;13.194;2023-06-01T05:51:13;16.77;;;6.33;;
11771;SDS011;12556;55.748;13.194;2023-06-01T05:53:40;14.37;;;5.03;;
11771;SDS011;12556;55.748;13.194;2023-06-01T05:56:07;17.60;;;5.90;;
11771;SDS011;12556;55.748;13.194;2023-06-01T05:58:34;15.73;;;5.13;;
11771;SDS011;12556;55.748;13.194;2023-06-01T06:01:01;12.13;;;4.90;;
11771;SDS011;12556;55.748;13.194;2023-06-01T06:03:29;17.50;;;5.60;;
11771;SDS011;12556;55.748;13.194;2023-06-01T06:05:56;14.63;;;5.47;;
11771;SDS011;12556;55.748;13.194;2023-06-01T06:08:23;14.30;;;5.67;;
11771;SDS011;12556;55.748;13.194;2023-06-01T06:10:50;15.17;;;5.77;;
11771;SDS011;12556;55.748;13.194;2023-06-01T06:13:17;12.77;;;5.50;;
11771;SDS011;12556;55.748;13.194;2023-06-01T06:15:44;16.67;;;5.43;;
11771;SDS011;12556;55.748;13.194;2023-06-01T06:18:11;14.93;;;5.37;;
11771;SDS011;12556;55.748;13.194;2023-06-01T06:20:39;17.00;;;5.97;;
11771;SDS011;12556;55.748;13.194;2023-06-01T06:23:06;21.10;;;6.50;;
11771;SDS011;12556;55.748;13.194;2023-06-01T06:25:33;15.40;;;5.63;;
11771;SDS011;12556;55.748;13.194;2023-06-01T06:28:01;14.73;;;5.63;;
11771;SDS011;12556;55.748;13.194;2023-06-01T06:30:29;15.37;;;5.23;;
11771;SDS011;12556;55.748;13.194;2023-06-01T06:32:56;16.73;;;5.80;;
11771;SDS011;12556;55.748;13.194;2023-06-01T06:35:23;12.27;;;6.17;;
11771;SDS011;12556;55.748;13.194;2023-06-01T06:37:51;17.70;;;5.57;;
11771;SDS011;12556;55.748;13.194;2023-06-01T06:40:18;15.53;;;5.60;;
11771;SDS011;12556;55.748;13.194;2023-06-01T06:42:45;14.30;;;5.40;;
11771;SDS011;12556;55.748;13.194;2023-06-01T06:45:12;15.63;;;6.17;;
11771;SDS011;12556;55.748;13.194;2023-06-01T06:47:39;13.63;;;5.40;;
11771;SDS011;12556;55.748;13.194;2023-06-01T06:50:07;16.60;;;5.77;;
11771;SDS011;12556;55.748;13.194;2023-06-01T06:52:35;16.80;;;5.00;;
11771;SDS011;12556;55.748;13.194;2023-06-01T06:55:03;13.40;;;4.83;;
11771;SDS011;12556;55.748;13.194;2023-06-01T06:57:31;13.00;;;5.30;;
11771;SDS011;12556;55.748;13.194;2023-06-01T06:59:59;12.47;;;5.20;;
11771;SDS011;12556;55.748;13.194;2023-06-01T07:02:30;13.50;;;4.93;;
11771;SDS011;12556;55.748;13.194;2023-06-01T07:04:57;16.70;;;5.37;;
11771;SDS011;12556;55.748;13.194;2023-06-01T07:07:24;15.00;;;5.63;;
11771;SDS011;12556;55.748;13.194;2023-06-01T07:09:51;12.17;;;5.13;;
11771;SDS011;12556;55.748;13.194;2023-06-01T07:12:20;16.73;;;5.03;;
11771;SDS011;12556;55.748;13.194;2023-06-01T07:14:47;11.87;;;4.60;;
11771;SDS011;12556;55.748;13.194;2023-06-01T07:17:14;13.13;;;4.73;;
11771;SDS011;12556;55.748;13.194;2023-06-01T07:19:41;14.37;;;4.60;;
11771;SDS011;12556;55.748;13.194;2023-06-01T07:22:07;12.83;;;5.50;;
11771;SDS011;12556;55.748;13.194;2023-06-01T07:24:34;16.17;;;5.20;;
11771;SDS011;12556;55.748;13.194;2023-06-01T07:27:01;12.60;;;5.57;;
11771;SDS011;12556;55.748;13.194;2023-06-01T07:29:29;15.00;;;4.90;;
11771;SDS011;12556;55.748;13.194;2023-06-01T07:31:57;16.83;;;5.17;;
11771;SDS011;12556;55.748;13.194;2023-06-01T07:34:24;13.97;;;4.83;;
11771;SDS011;12556;55.748;13.194;2023-06-01T07:36:51;14.10;;;5.23;;
11771;SDS011;12556;55.748;13.194;2023-06-01T07:39:18;14.17;;;5.33;;
11771;SDS011;12556;55.748;13.194;2023-06-01T07:41:45;10.50;;;5.67;;
11771;SDS011;12556;55.748;13.194;2023-06-01T07:44:12;15.40;;;4.97;;
11771;SDS011;12556;55.748;13.194;2023-06-01T07:46:44;13.30;;;4.93;;
11771;SDS011;12556;55.748;13.194;2023-06-01T07:49:11;14.03;;;5.40;;
11771;SDS011;12556;55.748;13.194;2023-06-01T07:51:39;14.10;;;5.33;;
11771;SDS011;12556;55.748;13.194;2023-06-01T07:54:06;15.97;;;5.60;;
11771;SDS011;12556;55.748;13.194;2023-06-01T07:56:33;15.10;;;5.17;;
11771;SDS011;12556;55.748;13.194;2023-06-01T07:59:00;13.93;;;5.30;;
11771;SDS011;12556;55.748;13.194;2023-06-01T08:01:27;17.40;;;5.77;;
11771;SDS011;12556;55.748;13.194;2023-06-01T08:03:55;13.10;;;4.87;;
11771;SDS011;12556;55.748;13.194;2023-06-01T08:06:23;10.30;;;4.27;;
11771;SDS011;12556;55.748;13.194;2023-06-01T08:08:51;12.03;;;4.07;;
11771;SDS011;12556;55.748;13.194;2023-06-01T08:11:18;13.70;;;3.97;;
11771;SDS011;12556;55.748;13.194;2023-06-01T08:13:46;16.30;;;5.20;;
11771;SDS011;12556;55.748;13.194;2023-06-01T08:16:13;8.27;;;4.07;;
11771;SDS011;12556;55.748;13.194;2023-06-01T08:18:41;10.80;;;4.70;;
11771;SDS011;12556;55.748;13.194;2023-06-01T08:21:09;13.63;;;4.93;;
11771;SDS011;12556;55.748;13.194;2023-06-01T08:23:36;13.60;;;4.73;;
11771;SDS011;12556;55.748;13.194;2023-06-01T08:26:03;11.07;;;5.00;;
11771;SDS011;12556;55.748;13.194;2023-06-01T08:28:30;10.73;;;4.03;;
11771;SDS011;12556;55.748;13.194;2023-06-01T08:30:58;12.10;;;4.55;;
11771;SDS011;12556;55.748;13.194;2023-06-01T08:33:24;11.60;;;4.45;;
11771;SDS011;12556;55.748;13.194;2023-06-01T08:35:51;10.75;;;3.83;;
11771;SDS011;12556;55.748;13.194;2023-06-01T08:38:20;11.88;;;4.32;;
11771;SDS011;12556;55.748;13.194;2023-06-01T08:40:47;10.45;;;4.53;;
11771;SDS011;12556;55.748;13.194;2023-06-01T08:43:17;13.07;;;4.68;;
11771;SDS011;12556;55.748;13.194;2023-06-01T08:45:45;13.88;;;5.18;;
11771;SDS011;12556;55.748;13.194;2023-06-01T08:48:14;10.30;;;5.00;;
11771;SDS011;12556;55.748;13.194;2023-06-01T08:50:42;13.02;;;4.68;;
11771;SDS011;12556;55.748;13.194;2023-06-01T08:53:10;8.00;;;4.45;;
11771;SDS011;12556;55.748;13.194;2023-06-01T08:55:39;10.00;;;5.18;;
11771;SDS011;12556;55.748;13.194;2023-06-01T08:58:06;11.45;;;7.60;;
11771;SDS011;12556;55.748;13.194;2023-06-01T09:00:33;9.32;;;5.70;;
11771;SDS011;12556;55.748;13.194;2023-06-01T09:03:01;12.65;;;6.35;;
11771;SDS011;12556;55.748;13.194;2023-06-01T09:05:29;11.68;;;10.40;;
11771;SDS011;12556;55.748;13.194;2023-06-01T09:07:56;13.90;;;9.70;;
11771;SDS011;12556;55.748;13.194;2023-06-01T09:10:23;9.55;;;7.38;;
11771;SDS011;12556;55.748;13.194;2023-06-01T09:12:52;14.82;;;13.30;;
11771;SDS011;12556;55.748;13.194;2023-06-01T09:15:20;14.38;;;9.82;;
11771;SDS011;12556;55.748;13.194;2023-06-01T09:17:48;13.88;;;12.80;;
11771;SDS011;12556;55.748;13.194;2023-06-01T09:20:22;22.98;;;20.85;;
11771;SDS011;12556;55.748;13.194;2023-06-01T09:22:51;11.85;;;8.90;;
11771;SDS011;12556;55.748;13.194;2023-06-01T09:25:23;25.10;;;23.15;;
11771;SDS011;12556;55.748;13.194;2023-06-01T09:27:54;26.40;;;24.67;;
11771;SDS011;12556;55.748;13.194;2023-06-01T09:30:23;19.27;;;17.63;;
11771;SDS011;12556;55.748;13.194;2023-06-01T09:32:54;22.00;;;20.38;;
11771;SDS011;12556;55.748;13.194;2023-06-01T09:35:39;35.35;;;33.47;;
11771;SDS011;12556;55.748;13.194;2023-06-01T09:38:08;31.77;;;29.90;;
11771;SDS011;12556;55.748;13.194;2023-06-01T09:40:37;39.35;;;37.13;;
11771;SDS011;12556;55.748;13.194;2023-06-01T09:43:19;43.55;;;41.22;;
11771;SDS011;12556;55.748;13.194;2023-06-01T09:45:55;54.33;;;51.58;;
11771;SDS011;12556;55.748;13.194;2023-06-01T09:48:30;32.55;;;30.70;;
11771;SDS011;12556;55.748;13.194;2023-06-01T09:50:57;61.63;;;58.63;;
11771;SDS011;12556;55.748;13.194;2023-06-01T09:53:24;75.53;;;72.05;;
11771;SDS011;12556;55.748;13.194;2023-06-01T09:55:59;67.53;;;64.28;;
11771;SDS011;12556;55.748;13.194;2023-06-01T09:58:28;49.65;;;47.03;;
11771;SDS011;12556;55.748;13.194;2023-06-01T10:00:56;66.03;;;63.13;;
11771;SDS011;12556;55.748;13.194;2023-06-01T10:03:26;44.95;;;42.63;;
11771;SDS011;12556;55.748;13.194;2023-06-01T10:05:54;59.85;;;57.03;;
11771;SDS011;12556;55.748;13.194;2023-06-01T10:08:22;80.70;;;77.13;;
11771;SDS011;12556;55.748;13.194;2023-06-01T10:10:49;92.82;;;88.68;;
11771;SDS011;12556;55.748;13.194;2023-06-01T10:13:16;78.88;;;75.35;;
11771;SDS011;12556;55.748;13.194;2023-06-01T10:15:45;88.22;;;84.25;;
11771;SDS011;12556;55.748;13.194;2023-06-01T10:18:12;108.57;;;104.35;;
11771;SDS011;12556;55.748;13.194;2023-06-01T10:20:39;85.20;;;81.38;;
11771;SDS011;12556;55.748;13.194;2023-06-01T10:23:05;95.90;;;92.18;;
11771;SDS011;12556;55.748;13.194;2023-06-01T10:25:33;120.10;;;115.20;;
11771;SDS011;12556;55.748;13.194;2023-06-01T10:28:04;124.05;;;118.88;;
11771;SDS011;12556;55.748;13.194;2023-06-01T10:30:33;67.28;;;64.18;;
11771;SDS011;12556;55.748;13.194;2023-06-01T10:33:02;139.75;;;133.85;;
11771;SDS011;12556;55.748;13.194;2023-06-01T10:35:50;125.18;;;120.25;;
11771;SDS011;12556;55.748;13.194;2023-06-01T10:38:21;123.40;;;118.38;;
11771;SDS011;12556;55.748;13.194;2023-06-01T10:40:49;92.10;;;87.57;;
11771;SDS011;12556;55.748;13.194;2023-06-01T10:49:03;141.73;;;136.32;;
11771;SDS011;12556;55.748;13.194;2023-06-01T10:51:31;166.95;;;160.25;;
11771;SDS011;12556;55.748;13.194;2023-06-01T11:02:43;188.57;;;181.25;;
11771;SDS011;12556;55.748;13.194;2023-06-01T11:11:17;194.05;;;186.35;;
11771;SDS011;12556;55.748;13.194;2023-06-01T11:16:31;175.43;;;168.57;;
11771;SDS011;12556;55.748;13.194;2023-06-01T11:18:59;262.35;;;252.38;;
11771;SDS011;12556;55.748;13.194;2023-06-01T11:21:29;201.93;;;193.93;;
11771;SDS011;12556;55.748;13.194;2023-06-01T11:23:58;259.85;;;249.57;;
11771;SDS011;12556;55.748;13.194;2023-06-01T11:26:30;270.38;;;260.02;;
11771;SDS011;12556;55.748;13.194;2023-06-01T11:29:05;274.58;;;264.05;;
11771;SDS011;12556;55.748;13.194;2023-06-01T11:31:34;275.73;;;264.95;;
11771;SDS011;12556;55.748;13.194;2023-06-01T11:34:02;299.92;;;288.17;;
11771;SDS011;12556;55.748;13.194;2023-06-01T11:36:31;289.83;;;277.85;;
11771;SDS011;12556;55.748;13.194;2023-06-01T11:39:02;296.38;;;284.15;;
11771;SDS011;12556;55.748;13.194;2023-06-01T11:41:33;294.55;;;282.80;;
11771;SDS011;12556;55.748;13.194;2023-06-01T11:44:00;297.50;;;285.70;;
11771;SDS011;12556;55.748;13.194;2023-06-01T11:46:27;301.58;;;289.63;;
11771;SDS011;12556;55.748;13.194;2023-06-01T11:49:00;281.63;;;270.25;;
11771;SDS011;12556;55.748;13.194;2023-06-01T11:51:31;309.85;;;297.17;;
11771;SDS011;12556;55.748;13.194;2023-06-01T11:54:00;272.92;;;262.55;;
11771;SDS011;12556;55.748;13.194;2023-06-01T11:56:28;309.13;;;297.05;;
11771;SDS011;12556;55.748;13.194;2023-06-01T11:58:56;278.30;;;267.45;;
11771;SDS011;12556;55.748;13.194;2023-06-01T12:01:24;316.95;;;304.58;;
11771;SDS011;12556;55.748;13.194;2023-06-01T12:03:51;284.83;;;273.55;;
11771;SDS011;12556;55.748;13.194;2023-06-01T12:06:19;301.83;;;289.98;;
11771;SDS011;12556;55.748;13.194;2023-06-01T12:08:48;247.13;;;237.63;;
11771;SDS011;12556;55.748;13.194;2023-06-01T12:11:17;341.38;;;327.67;;
11771;SDS011;12556;55.748;13.194;2023-06-01T12:13:46;308.02;;;296.10;;
11771;SDS011;12556;55.748;13.194;2023-06-01T12:16:14;357.88;;;343.50;;
11771;SDS011;12556;55.748;13.194;2023-06-01T12:18:41;350.08;;;335.90;;
11771;SDS011;12556;55.748;13.194;2023-06-01T12:21:09;336.80;;;323.17;;
11771;SDS011;12556;55.748;13.194;2023-06-01T12:23:36;334.15;;;320.75;;
11771;SDS011;12556;55.748;13.194;2023-06-01T12:26:05;349.08;;;334.98;;
11771;SDS011;12556;55.748;13.194;2023-06-01T12:28:49;365.02;;;350.23;;
11771;SDS011;12556;55.748;13.194;2023-06-01T12:31:18;317.73;;;305.33;;
11771;SDS011;12556;55.748;13.194;2023-06-01T12:33:46;368.05;;;353.02;;
11771;SDS011;12556;55.748;13.194;2023-06-01T12:36:29;302.98;;;290.40;;
11771;SDS011;12556;55.748;13.194;2023-06-01T12:38:57;343.90;;;330.15;;
11771;SDS011;12556;55.748;13.194;2023-06-01T12:41:27;350.40;;;335.77;;
11771;SDS011;12556;55.748;13.194;2023-06-01T12:43:55;359.08;;;344.70;;
11771;SDS011;12556;55.748;13.194;2023-06-01T12:46:23;354.20;;;339.70;;
11771;SDS011;12556;55.748;13.194;2023-06-01T12:48:51;306.02;;;293.45;;
11771;SDS011;12556;55.748;13.194;2023-06-01T12:51:20;419.42;;;402.20;;
11771;SDS011;12556;55.748;13.194;2023-06-01T12:53:47;407.45;;;390.35;;
11771;SDS011;12556;55.748;13.194;2023-06-01T12:56:14;390.48;;;374.13;;
11771;SDS011;12556;55.748;13.194;2023-06-01T12:58:43;419.35;;;401.75;;
11771;SDS011;12556;55.748;13.194;2023-06-01T13:01:10;405.30;;;387.98;;
11771;SDS011;12556;55.748;13.194;2023-06-01T13:03:36;425.90;;;407.42;;
11771;SDS011;12556;55.748;13.194;2023-06-01T13:06:03;442.33;;;423.67;;
11771;SDS011;12556;55.748;13.194;2023-06-01T13:08:31;505.92;;;482.80;;
11771;SDS011;12556;55.748;13.194;2023-06-01T13:10:58;448.05;;;428.73;;
11771;SDS011;12556;55.748;13.194;2023-06-01T13:13:25;464.80;;;444.08;;
11771;SDS011;12556;55.748;13.194;2023-06-01T13:15:53;507.23;;;483.40;;
11771;SDS011;12556;55.748;13.194;2023-06-01T13:18:20;489.45;;;467.85;;
11771;SDS011;12556;55.748;13.194;2023-06-01T13:20:47;502.45;;;479.60;;
11771;SDS011;12556;55.748;13.194;2023-06-01T13:23:15;480.13;;;458.83;;
11771;SDS011;12556;55.748;13.194;2023-06-01T13:25:43;431.38;;;411.95;;
11771;SDS011;12556;55.748;13.194;2023-06-01T13:28:10;522.28;;;497.15;;
11771;SDS011;12556;55.748;13.194;2023-06-01T13:30:38;507.23;;;482.73;;
11771;SDS011;12556;55.748;13.194;2023-06-01T13:33:06;538.35;;;511.83;;
11771;SDS011;12556;55.748;13.194;2023-06-01T13:35:33;489.73;;;467.63;;
11771;SDS011;12556;55.748;13.194;2023-06-01T13:38:01;466.02;;;445.38;;
11771;SDS011;12556;55.748;13.194;2023-06-01T13:40:28;466.15;;;445.40;;
11771;SDS011;12556;55.748;13.194;2023-06-01T13:42:54;470.95;;;450.05;;
11771;SDS011;12556;55.748;13.194;2023-06-01T13:45:22;438.52;;;419.50;;
11771;SDS011;12556;55.748;13.194;2023-06-01T13:47:49;453.05;;;432.98;;
11771;SDS011;12556;55.748;13.194;2023-06-01T13:50:18;370.15;;;354.13;;
11771;SDS011;12556;55.748;13.194;2023-06-01T13:52:44;498.65;;;476.25;;
11771;SDS011;12556;55.748;13.194;2023-06-01T13:55:11;426.98;;;409.15;;
11771;SDS011;12556;55.748;13.194;2023-06-01T13:57:39;470.60;;;450.05;;
11771;SDS011;12556;55.748;13.194;2023-06-01T14:00:07;425.13;;;407.05;;
11771;SDS011;12556;55.748;13.194;2023-06-01T14:02:35;408.77;;;391.63;;
11771;SDS011;12556;55.748;13.194;2023-06-01T14:05:02;422.05;;;404.38;;
11771;SDS011;12556;55.748;13.194;2023-06-01T14:07:30;424.65;;;406.50;;
11771;SDS011;12556;55.748;13.194;2023-06-01T14:09:57;418.85;;;400.92;;
11771;SDS011;12556;55.748;13.194;2023-06-01T14:12:24;341.60;;;327.90;;
11771;SDS011;12556;55.748;13.194;2023-06-01T14:14:51;345.95;;;331.95;;
11771;SDS011;12556;55.748;13.194;2023-06-01T14:17:18;362.60;;;347.75;;
11771;SDS011;12556;55.748;13.194;2023-06-01T14:19:45;321.00;;;308.40;;
11771;SDS011;12556;55.748;13.194;2023-06-01T14:22:12;350.70;;;336.33;;
11771;SDS011;12556;55.748;13.194;2023-06-01T14:24:40;379.48;;;363.77;;
11771;SDS011;12556;55.748;13.194;2023-06-01T14:27:07;351.15;;;336.65;;
11771;SDS011;12556;55.748;13.194;2023-06-01T14:29:34;359.15;;;344.65;;
11771;SDS011;12556;55.748;13.194;2023-06-01T14:32:00;330.05;;;317.00;;
11771;SDS011;12556;55.748;13.194;2023-06-01T14:34:27;349.50;;;335.40;;
11771;SDS011;12556;55.748;13.194;2023-06-01T14:36:54;298.85;;;285.35;;
11771;SDS011;12556;55.748;13.194;2023-06-01T14:39:21;253.05;;;243.13;;
11771;SDS011;12556;55.748;13.194;2023-06-01T14:41:49;245.20;;;235.90;;